createdAt,value
2024-01-05T00:01:24.420Z,60.23
2024-01-05T00:03:26.143Z,60.02
2024-01-05T00:05:28.157Z,60.19
2024-01-05T00:07:30.363Z,60.16
2024-01-05T00:09:32.088Z,60.34
2024-01-05T00:11:33.836Z,60.00
2024-01-05T00:13:35.421Z,59.87
2024-01-05T00:15:37.025Z,59.86
2024-01-05T00:17:38.869Z,59.86
2024-01-05T00:19:41.659Z,59.92
2024-01-05T00:21:43.471Z,59.87
2024-01-05T00:23:44.999Z,60.11
2024-01-05T00:25:46.638Z,59.76
2024-01-05T00:27:49.047Z,59.72
2024-01-05T00:29:50.944Z,59.67
2024-01-05T00:31:52.594Z,60.02
2024-01-05T00:33:54.419Z,59.97
2024-01-05T00:35:57.043Z,59.96
2024-01-05T00:37:58.910Z,59.73
2024-01-05T00:40:03.799Z,59.93
2024-01-05T00:42:06.686Z,59.67
2024-01-05T00:44:08.290Z,59.73
2024-01-05T00:46:10.500Z,59.63
2024-01-05T00:48:12.410Z,59.86
2024-01-05T00:50:14.164Z,59.93
2024-01-05T00:52:15.788Z,59.99
2024-01-05T00:54:17.356Z,59.64
2024-01-05T00:56:18.928Z,59.59
2024-01-05T00:58:20.460Z,59.48
2024-01-05T01:00:22.287Z,59.90
2024-01-05T01:02:23.895Z,59.45
2024-01-05T01:04:25.699Z,59.60
2024-01-05T01:06:27.391Z,59.62
2024-01-05T01:08:28.967Z,59.43
2024-01-05T01:10:30.551Z,59.54
2024-01-05T01:12:32.286Z,59.45
2024-01-05T01:14:34.197Z,59.56
2024-01-05T01:16:35.790Z,59.19
2024-01-05T01:18:37.493Z,59.54
2024-01-05T01:20:39.767Z,59.36
2024-01-05T01:22:41.220Z,59.23
2024-01-05T01:24:42.726Z,59.47
2024-01-05T01:26:44.616Z,59.59
2024-01-05T01:28:46.425Z,59.43
2024-01-05T01:30:48.314Z,59.14
2024-01-05T01:32:53.846Z,59.52
2024-01-05T01:34:55.465Z,59.17
2024-01-05T01:36:57.322Z,59.17
2024-01-05T01:38:59.031Z,58.88
2024-01-05T01:41:00.965Z,58.84
2024-01-05T01:43:02.901Z,58.82
2024-01-05T01:45:05.155Z,58.93
2024-01-05T01:47:06.769Z,58.90
2024-01-05T01:49:08.940Z,58.91
2024-01-05T01:51:14.460Z,59.11
2024-01-05T01:53:19.623Z,59.02
2024-01-05T01:55:21.398Z,58.67
2024-01-05T01:57:23.812Z,59.00
2024-01-05T01:59:25.940Z,58.70
2024-01-05T02:01:27.916Z,58.77
2024-01-05T02:03:30.125Z,58.79
2024-01-05T02:05:31.771Z,58.75
2024-01-05T02:07:33.491Z,58.86
2024-01-05T02:09:35.933Z,58.53
2024-01-05T02:11:38.325Z,58.54
2024-01-05T02:13:40.540Z,58.71
2024-01-05T02:15:42.009Z,58.45
2024-01-05T02:17:43.669Z,58.45
2024-01-05T02:19:46.338Z,58.46
2024-01-05T02:21:53.668Z,58.50
2024-01-05T02:23:55.495Z,58.32
2024-01-05T02:27:59.204Z,58.23
2024-01-05T02:30:01.000Z,58.39
2024-01-05T02:32:02.903Z,58.16
2024-01-05T02:38:17.853Z,58.37
2024-01-05T02:40:19.588Z,57.87
2024-01-05T02:42:21.351Z,57.83
2024-01-05T02:44:23.314Z,58.28
2024-01-05T02:46:25.128Z,58.28
2024-01-05T02:48:27.199Z,58.29
2024-01-05T02:50:29.003Z,57.96
2024-01-05T02:52:30.580Z,57.80
2024-01-05T02:54:32.592Z,57.68
2024-01-05T02:56:35.288Z,57.82
2024-01-05T02:58:37.215Z,57.87
2024-01-05T03:00:39.383Z,57.67
2024-01-05T03:02:41.245Z,57.89
2024-01-05T03:04:47.382Z,57.99
2024-01-05T03:06:49.314Z,57.87
2024-01-05T03:08:51.206Z,57.78
2024-01-05T03:10:52.964Z,57.78
2024-01-05T03:12:54.864Z,57.64
2024-01-05T03:14:59.487Z,57.84
2024-01-05T03:17:02.541Z,57.51
2024-01-05T03:19:04.899Z,57.60
2024-01-05T03:21:06.783Z,57.75
2024-01-05T03:23:10.430Z,57.94
2024-01-05T03:25:12.317Z,57.63
2024-01-05T03:27:16.045Z,57.81
2024-01-05T03:29:18.227Z,57.67
2024-01-05T03:31:24.037Z,57.51
2024-01-05T03:33:26.246Z,57.74
2024-01-05T03:35:27.970Z,57.85
2024-01-05T03:37:29.839Z,57.60
2024-01-05T03:39:31.993Z,57.34
2024-01-05T03:41:34.380Z,57.43
2024-01-05T03:43:36.287Z,57.87
2024-01-05T03:45:38.654Z,57.80
2024-01-05T03:47:40.591Z,57.48
2024-01-05T03:49:43.029Z,57.52
2024-01-05T03:51:44.868Z,57.90
2024-01-05T03:53:46.752Z,57.43
2024-01-05T03:55:48.771Z,57.44
2024-01-05T03:57:51.131Z,57.52
2024-01-05T03:59:53.109Z,57.54
2024-01-05T04:01:55.156Z,57.61
2024-01-05T04:03:58.920Z,57.62
2024-01-05T04:06:00.693Z,57.40
2024-01-05T04:08:03.093Z,57.59
2024-01-05T04:10:05.889Z,57.50
2024-01-05T04:12:10.967Z,57.60
2024-01-05T04:14:13.237Z,57.67
2024-01-05T04:16:15.662Z,57.53
2024-01-05T04:18:17.592Z,57.59
2024-01-05T04:20:19.545Z,57.30
2024-01-05T04:22:21.389Z,57.44
2024-01-05T04:24:23.136Z,57.19
2024-01-05T04:26:25.413Z,57.41
2024-01-05T04:28:27.387Z,57.54
2024-01-05T04:30:29.102Z,57.21
2024-01-05T04:32:34.288Z,57.35
2024-01-05T04:34:36.309Z,57.20
2024-01-05T04:36:40.816Z,57.40
2024-01-05T04:38:43.666Z,57.42
2024-01-05T04:40:45.520Z,57.47
2024-01-05T04:42:47.275Z,57.59
2024-01-05T04:44:50.763Z,57.46
2024-01-05T04:46:52.517Z,57.50
2024-01-05T04:48:54.660Z,57.61
2024-01-05T04:50:56.625Z,57.41
2024-01-05T04:52:58.497Z,57.25
2024-01-05T04:55:02.610Z,57.39
2024-01-05T04:57:07.757Z,57.08
2024-01-05T04:59:09.641Z,57.32
2024-01-05T05:01:11.334Z,57.44
2024-01-05T05:03:15.415Z,57.39
2024-01-05T05:05:17.407Z,57.19
2024-01-05T05:07:19.212Z,57.28
2024-01-05T05:09:21.292Z,57.49
2024-01-05T05:11:26.774Z,57.51
2024-01-05T05:13:28.779Z,57.31
2024-01-05T05:15:30.677Z,57.55
2024-01-05T05:17:32.496Z,57.57
2024-01-05T05:19:35.943Z,57.21
2024-01-05T05:21:38.266Z,57.19
2024-01-05T05:23:40.265Z,57.30
2024-01-05T05:25:44.960Z,57.31
2024-01-05T05:27:46.659Z,57.41
2024-01-05T05:29:48.897Z,57.24
2024-01-05T05:31:50.500Z,57.43
2024-01-05T05:33:52.245Z,57.15
2024-01-05T05:35:54.089Z,57.17
2024-01-05T05:37:56.973Z,57.19
2024-01-05T05:39:58.617Z,57.23
2024-01-05T05:42:00.488Z,57.13
2024-01-05T05:44:02.368Z,57.34
2024-01-05T05:46:04.208Z,57.16
2024-01-05T05:48:06.855Z,57.67
2024-01-05T05:50:08.844Z,57.27
2024-01-05T05:52:10.933Z,57.21
2024-01-05T05:54:12.838Z,57.27
2024-01-05T05:56:14.472Z,57.29
2024-01-05T05:58:16.099Z,57.31
2024-01-05T06:00:18.027Z,57.36
2024-01-05T06:02:19.707Z,57.28
2024-01-05T06:04:21.500Z,57.13
2024-01-05T06:06:24.803Z,57.57
2024-01-05T06:08:26.888Z,57.46
2024-01-05T06:10:28.556Z,56.92
2024-01-05T06:12:30.150Z,57.01
2024-01-05T06:14:34.398Z,57.34
2024-01-05T06:16:36.256Z,57.52
2024-01-05T06:18:39.921Z,57.59
2024-01-05T06:20:41.780Z,57.28
2024-01-05T06:22:43.499Z,57.29
2024-01-05T06:24:45.974Z,57.11
2024-01-05T06:26:47.678Z,57.04
2024-01-05T06:28:49.665Z,57.34
2024-01-05T06:30:51.418Z,57.44
2024-01-05T06:32:53.108Z,57.19
2024-01-05T06:34:54.907Z,57.18
2024-01-05T06:36:56.622Z,57.22
2024-01-05T06:38:58.441Z,57.16
2024-01-05T06:41:00.099Z,57.15
2024-01-05T06:43:02.086Z,56.88
2024-01-05T06:45:04.103Z,56.87
2024-01-05T06:47:05.751Z,57.27
2024-01-05T06:49:07.781Z,57.32
2024-01-05T06:51:09.609Z,57.11
2024-01-05T06:53:11.253Z,56.89
2024-01-05T06:55:13.014Z,57.26
2024-01-05T06:57:14.662Z,57.42
2024-01-05T06:59:17.239Z,57.12
2024-01-05T07:01:19.104Z,57.15
2024-01-05T07:03:20.738Z,57.40
2024-01-05T07:05:22.480Z,57.38
2024-01-05T07:07:24.253Z,56.91
2024-01-05T07:09:26.862Z,57.24
2024-01-05T07:11:28.869Z,57.37
2024-01-05T07:13:30.499Z,57.34
2024-01-05T07:15:32.091Z,57.34
2024-01-05T07:17:33.723Z,57.28
2024-01-05T07:19:35.503Z,57.05
2024-01-05T07:21:45.104Z,57.30
2024-01-05T07:23:47.525Z,57.22
2024-01-05T07:25:49.112Z,57.05
2024-01-05T07:27:50.625Z,57.00
2024-01-05T07:29:52.553Z,57.15
2024-01-05T07:31:54.196Z,57.17
2024-01-05T07:33:55.913Z,56.98
2024-01-05T07:35:57.592Z,57.16
2024-01-05T07:37:59.257Z,57.36
2024-01-05T07:40:01.313Z,57.32
2024-01-05T07:42:04.023Z,57.42
2024-01-05T07:44:05.937Z,57.33
2024-01-05T07:46:07.672Z,57.44
2024-01-05T07:48:09.531Z,57.05
2024-01-05T07:50:11.509Z,57.52
2024-01-05T07:52:13.185Z,57.24
2024-01-05T07:54:14.826Z,57.34
2024-01-05T07:56:20.157Z,57.33
2024-01-05T07:58:21.767Z,57.07
2024-01-05T08:00:23.516Z,57.30
2024-01-05T08:02:25.137Z,57.31
2024-01-05T08:04:26.756Z,57.36
2024-01-05T08:06:28.587Z,57.06
2024-01-05T08:08:30.276Z,57.32
2024-01-05T08:10:32.177Z,57.10
2024-01-05T08:12:33.832Z,57.17
2024-01-05T08:14:35.725Z,57.39
2024-01-05T08:16:37.648Z,57.22
2024-01-05T08:18:40.954Z,56.97
2024-01-05T08:20:42.747Z,57.39
2024-01-05T08:22:44.538Z,57.17
2024-01-05T08:24:46.275Z,57.28
2024-01-05T08:26:47.949Z,56.97
2024-01-05T08:28:49.556Z,56.95
2024-01-05T08:30:52.563Z,57.13
2024-01-05T08:32:56.696Z,56.97
2024-01-05T08:34:58.596Z,57.34
2024-01-05T08:37:00.195Z,56.90
2024-01-05T08:39:01.862Z,57.04
2024-01-05T08:41:03.720Z,57.04
2024-01-05T08:43:05.803Z,57.10
2024-01-05T08:45:08.056Z,56.89
2024-01-05T08:47:09.588Z,56.90
2024-01-05T08:49:11.214Z,57.07
2024-01-05T08:51:13.217Z,56.90
2024-01-05T08:53:14.990Z,57.05
2024-01-05T08:55:17.745Z,57.06
2024-01-05T08:57:19.538Z,56.88
2024-01-05T08:59:21.179Z,56.88
2024-01-05T09:01:23.530Z,57.04
2024-01-05T09:03:25.364Z,56.84
2024-01-05T09:05:27.158Z,56.94
2024-01-05T09:07:28.827Z,57.20
2024-01-05T09:09:30.492Z,57.74
2024-01-05T09:11:32.072Z,56.79
2024-01-05T09:13:36.127Z,56.84
2024-01-05T09:15:39.611Z,56.98
2024-01-05T09:17:41.484Z,57.02
2024-01-05T09:19:43.525Z,56.73
2024-01-05T09:21:45.476Z,57.00
2024-01-05T09:23:47.366Z,56.67
2024-01-05T09:25:48.914Z,56.99
2024-01-05T09:27:50.517Z,56.70
2024-01-05T09:29:52.154Z,56.64
2024-01-05T09:31:53.899Z,56.78
2024-01-05T09:33:55.904Z,56.63
2024-01-05T09:35:57.791Z,56.76
2024-01-05T09:37:59.315Z,56.58
2024-01-05T09:40:01.005Z,56.67
2024-01-05T09:42:03.724Z,56.53
2024-01-05T09:44:06.316Z,56.36
2024-01-05T09:46:08.536Z,56.74
2024-01-05T09:48:11.355Z,56.53
2024-01-05T09:50:14.486Z,57.54
2024-01-05T09:52:19.237Z,57.98
2024-01-05T09:54:20.935Z,57.96
2024-01-05T09:56:23.296Z,57.71
2024-01-05T09:58:26.851Z,57.24
2024-01-05T10:00:32.655Z,56.64
2024-01-05T10:02:43.133Z,56.34
2024-01-05T10:04:45.395Z,56.49
2024-01-05T10:06:47.227Z,55.83
2024-01-05T10:08:55.973Z,56.30
2024-01-05T10:10:58.112Z,56.36
2024-01-05T10:13:06.449Z,55.75
2024-01-05T10:15:09.007Z,55.59
2024-01-05T10:17:12.000Z,55.84
2024-01-05T10:19:16.927Z,55.95
2024-01-05T10:21:19.706Z,55.51
2024-01-05T10:23:21.507Z,55.86
2024-01-05T10:25:23.359Z,55.34
2024-01-05T10:27:28.694Z,55.64
2024-01-05T10:29:33.494Z,55.73
2024-01-05T10:31:35.733Z,55.83
2024-01-05T10:33:52.647Z,55.56
2024-01-05T10:35:54.495Z,55.98
2024-01-05T10:38:04.185Z,55.89
2024-01-05T10:40:06.595Z,56.19
2024-01-05T10:42:28.771Z,55.79
2024-01-05T10:44:30.776Z,56.06
2024-01-05T10:46:35.879Z,56.28
2024-01-05T10:48:38.948Z,55.22
2024-01-05T10:50:44.660Z,55.56
2024-01-05T10:52:46.504Z,55.56
2024-01-05T10:54:49.400Z,55.33
2024-01-05T10:56:55.737Z,55.53
2024-01-05T10:58:57.791Z,55.60
2024-01-05T11:01:01.713Z,55.60
2024-01-05T11:03:24.851Z,55.58
2024-01-05T11:05:29.211Z,55.74
2024-01-05T11:07:34.678Z,55.93
2024-01-05T11:09:51.120Z,55.97
2024-01-05T11:12:21.871Z,55.46
2024-01-05T11:14:23.485Z,55.82
2024-01-05T11:16:43.435Z,55.38
2024-01-05T11:18:56.667Z,55.54
2024-01-05T11:21:26.062Z,55.73
2024-01-05T11:23:28.872Z,55.54
2024-01-05T11:25:30.805Z,56.08
2024-01-05T11:27:35.053Z,55.57
2024-01-05T11:29:46.102Z,55.44
2024-01-05T11:31:47.811Z,55.90
2024-01-05T11:33:50.609Z,55.70
2024-01-05T11:35:52.697Z,55.53
2024-01-05T11:37:54.413Z,56.00
2024-01-05T11:39:56.239Z,55.66
2024-01-05T11:41:58.172Z,55.61
2024-01-05T11:44:00.018Z,55.69
2024-01-05T11:46:01.918Z,55.76
2024-01-05T11:48:03.876Z,55.73
2024-01-05T11:50:34.624Z,55.52
2024-01-05T11:52:36.427Z,55.57
2024-01-05T11:54:38.020Z,55.77
2024-01-05T11:56:39.697Z,55.77
2024-01-05T11:58:42.379Z,55.62
2024-01-05T12:00:46.140Z,55.99
2024-01-05T12:02:47.960Z,55.79
2024-01-05T12:04:49.888Z,55.50
2024-01-05T12:06:54.905Z,55.65
2024-01-05T12:08:56.537Z,55.75
2024-01-05T12:11:07.127Z,55.88
2024-01-05T12:13:09.113Z,55.56
2024-01-05T12:15:10.919Z,55.21
2024-01-05T12:17:15.815Z,55.61
2024-01-05T12:19:22.529Z,55.86
2024-01-05T12:23:32.409Z,55.33
2024-01-05T12:25:36.422Z,55.50
2024-01-05T12:27:41.896Z,54.92
2024-01-05T12:29:44.043Z,55.30
2024-01-05T12:31:48.186Z,55.09
2024-01-05T12:33:50.153Z,54.99
2024-01-05T12:35:53.468Z,55.38
2024-01-05T12:37:55.532Z,55.36
2024-01-05T12:40:13.477Z,55.34
2024-01-05T12:42:15.999Z,55.59
2024-01-05T12:44:17.842Z,55.01
2024-01-05T12:46:22.631Z,55.24
2024-01-05T12:48:30.501Z,56.42
2024-01-05T12:50:32.273Z,56.08
2024-01-05T12:52:38.053Z,56.30
2024-01-05T12:54:44.008Z,55.86
2024-01-05T12:56:46.950Z,55.65
2024-01-05T12:58:48.628Z,55.83
2024-01-05T13:00:52.940Z,56.09
2024-01-05T13:02:54.780Z,55.85
2024-01-05T13:04:56.462Z,55.39
2024-01-05T13:06:58.152Z,55.49
2024-01-05T13:09:00.050Z,56.24
2024-01-05T13:11:04.398Z,55.54
2024-01-05T13:13:07.573Z,55.91
2024-01-05T13:15:10.617Z,55.49
2024-01-05T13:17:12.220Z,55.65
2024-01-05T13:19:16.091Z,55.47
2024-01-05T13:21:17.957Z,55.05
2024-01-05T13:23:19.928Z,55.06
2024-01-05T13:25:21.664Z,54.88
2024-01-05T13:27:23.210Z,54.94
2024-01-05T13:29:24.776Z,54.53
2024-01-05T13:31:26.485Z,54.89
2024-01-05T13:33:28.333Z,54.30
2024-01-05T13:35:29.991Z,55.00
2024-01-05T13:37:32.040Z,54.87
2024-01-05T13:39:36.281Z,55.29
2024-01-05T13:41:38.016Z,55.42
2024-01-05T13:43:39.843Z,55.13
2024-01-05T13:45:41.535Z,55.10
2024-01-05T13:47:43.203Z,55.24
2024-01-05T13:49:44.797Z,55.64
2024-01-05T13:51:46.395Z,55.87
2024-01-05T13:53:48.298Z,55.93
2024-01-05T13:55:50.471Z,56.20
2024-01-05T13:57:52.062Z,55.92
2024-01-05T13:59:53.752Z,55.84
2024-01-05T14:01:55.643Z,55.68
2024-01-05T14:03:57.302Z,55.80
2024-01-05T14:06:04.927Z,55.67
2024-01-05T14:08:06.896Z,56.03
2024-01-05T14:10:08.910Z,56.30
2024-01-05T14:12:11.180Z,55.60
2024-01-05T14:14:12.797Z,55.78
2024-01-05T14:16:14.468Z,55.53
2024-01-05T14:18:16.189Z,55.47
2024-01-05T14:20:18.434Z,55.38
2024-01-05T14:22:21.227Z,55.28
2024-01-05T14:24:25.154Z,55.42
2024-01-05T14:26:27.380Z,54.87
2024-01-05T14:28:28.978Z,54.60
2024-01-05T14:30:30.794Z,54.35
2024-01-05T14:32:32.899Z,54.95
2024-01-05T14:34:35.524Z,54.98
2024-01-05T14:36:38.523Z,55.26
2024-01-05T14:38:40.183Z,55.03
2024-01-05T14:40:41.750Z,55.13
2024-01-05T14:42:43.496Z,54.82
2024-01-05T14:44:45.248Z,54.63
2024-01-05T14:46:46.853Z,54.68
2024-01-05T14:48:48.596Z,54.81
2024-01-05T14:50:50.502Z,54.74
2024-01-05T14:52:59.766Z,54.66
2024-01-05T14:55:10.856Z,54.58
2024-01-05T14:57:12.507Z,54.72
2024-01-05T14:59:14.210Z,54.69
2024-01-05T15:01:16.074Z,54.39
2024-01-05T15:03:18.028Z,54.35
2024-01-05T15:05:19.928Z,54.48
2024-01-05T15:07:21.666Z,54.75
2024-01-05T15:09:23.930Z,54.69
2024-01-05T15:11:25.553Z,54.21
2024-01-05T15:13:27.493Z,54.22
2024-01-05T15:15:29.284Z,54.39
2024-01-05T15:17:32.011Z,54.70
2024-01-05T15:19:36.662Z,54.41
2024-01-05T15:21:38.427Z,53.98
2024-01-05T15:23:42.704Z,54.13
2024-01-05T15:25:44.407Z,53.99
2024-01-05T15:27:46.827Z,54.35
2024-01-05T15:29:48.411Z,54.27
2024-01-05T15:31:53.547Z,54.21
2024-01-05T15:33:57.080Z,53.69
2024-01-05T15:35:59.814Z,53.42
2024-01-05T15:38:01.483Z,53.87
2024-01-05T15:40:03.832Z,53.66
2024-01-05T15:42:06.841Z,53.64
2024-01-05T15:44:08.470Z,53.51
2024-01-05T15:46:11.407Z,53.72
2024-01-05T15:48:19.666Z,53.52
2024-01-05T15:50:21.878Z,53.94
2024-01-05T15:52:23.636Z,53.27
2024-01-05T15:54:25.363Z,53.26
2024-01-05T15:56:28.165Z,53.16
2024-01-05T15:58:29.816Z,53.13
2024-01-05T16:00:31.425Z,53.51
2024-01-05T16:02:34.669Z,53.30
2024-01-05T16:04:36.637Z,53.17
2024-01-05T16:06:38.271Z,54.88
2024-01-05T16:08:42.497Z,53.50
2024-01-05T16:10:44.059Z,53.75
2024-01-05T16:12:45.669Z,53.08
2024-01-05T16:14:48.330Z,53.90
2024-01-05T16:16:50.212Z,54.15
2024-01-05T16:18:52.429Z,54.16
2024-01-05T16:20:54.123Z,54.29
2024-01-05T16:22:55.814Z,56.05
2024-01-05T16:24:58.067Z,56.05
2024-01-05T16:26:59.620Z,56.11
2024-01-05T16:29:01.305Z,56.35
2024-01-05T16:31:03.078Z,55.99
2024-01-05T16:33:05.329Z,55.18
2024-01-05T16:35:07.529Z,55.39
2024-01-05T16:37:09.127Z,55.50
2024-01-05T16:39:11.137Z,55.58
2024-01-05T16:41:14.498Z,55.47
2024-01-05T16:43:17.577Z,55.53
2024-01-05T16:45:19.323Z,55.79
2024-01-05T16:47:24.590Z,55.27
2024-01-05T16:49:26.286Z,55.47
2024-01-05T16:51:30.478Z,55.65
2024-01-05T16:53:33.826Z,55.86
2024-01-05T16:55:35.784Z,55.62
2024-01-05T16:57:37.692Z,55.60
2024-01-05T16:59:39.977Z,55.84
2024-01-05T17:01:41.569Z,55.97
2024-01-05T17:03:43.375Z,55.73
2024-01-05T17:05:47.346Z,55.82
2024-01-05T17:07:49.024Z,55.90
2024-01-05T17:09:52.728Z,56.01
2024-01-05T17:11:57.957Z,55.99
2024-01-05T17:14:00.491Z,55.84
2024-01-05T17:16:02.171Z,56.18
2024-01-05T17:18:04.394Z,56.17
2024-01-05T17:20:17.098Z,56.04
2024-01-05T17:22:25.942Z,56.38
2024-01-05T17:24:27.607Z,56.20
2024-01-05T17:26:31.144Z,56.37
2024-01-05T17:28:32.933Z,56.41
2024-01-05T17:30:34.585Z,56.71
2024-01-05T17:32:36.408Z,56.32
2024-01-05T17:34:39.005Z,56.28
2024-01-05T17:36:42.427Z,56.50
2024-01-05T17:38:44.257Z,56.31
2024-01-05T17:40:45.897Z,56.40
2024-01-05T17:42:47.533Z,56.65
2024-01-05T17:44:51.281Z,56.48
2024-01-05T17:46:52.964Z,56.31
2024-01-05T17:48:54.659Z,56.28
2024-01-05T17:51:00.325Z,56.55
2024-01-05T17:53:02.151Z,56.61
2024-01-05T17:55:04.018Z,56.81
2024-01-05T17:57:07.412Z,56.71
2024-01-05T17:59:10.011Z,56.69
2024-01-05T18:01:13.544Z,56.40
2024-01-05T18:03:16.212Z,56.65
2024-01-05T18:05:17.898Z,56.48
2024-01-05T18:07:19.622Z,56.82
2024-01-05T18:09:22.026Z,56.62
2024-01-05T18:11:27.714Z,56.72
2024-01-05T18:13:29.562Z,56.72
2024-01-05T18:15:31.194Z,57.21
2024-01-05T18:17:32.974Z,56.87
2024-01-05T18:19:34.769Z,56.56
2024-01-05T18:21:44.110Z,56.74
2024-01-05T18:23:45.883Z,56.35
2024-01-05T18:25:47.466Z,56.52
2024-01-05T18:27:49.265Z,56.32
2024-01-05T18:29:51.075Z,56.22
2024-01-05T18:31:53.479Z,56.54
2024-01-05T18:33:56.268Z,56.37
2024-01-05T18:35:58.147Z,56.54
2024-01-05T18:37:59.793Z,56.12
2024-01-05T18:40:01.492Z,56.71
2024-01-05T18:42:03.268Z,56.48
2024-01-05T18:44:05.557Z,56.37
2024-01-05T18:46:07.093Z,56.46
2024-01-05T18:48:10.372Z,56.44
2024-01-05T18:50:12.077Z,56.90
2024-01-05T18:52:15.748Z,56.84
2024-01-05T18:54:17.394Z,56.94
2024-01-05T18:56:19.230Z,56.54
2024-01-05T18:58:22.715Z,56.92
2024-01-05T19:00:24.456Z,56.55
2024-01-05T19:02:26.078Z,57.09
2024-01-05T19:04:27.740Z,56.88
2024-01-05T19:06:29.373Z,56.73
2024-01-05T19:08:31.210Z,56.63
2024-01-05T19:10:33.712Z,57.23
2024-01-05T19:12:36.987Z,57.07
2024-01-05T19:14:38.680Z,57.08
2024-01-05T19:16:43.890Z,57.06
2024-01-05T19:18:46.020Z,57.16
2024-01-05T19:20:47.721Z,57.22
2024-01-05T19:22:49.425Z,57.07
2024-01-05T19:24:51.700Z,56.90
2024-01-05T19:26:53.379Z,57.33
2024-01-05T19:28:55.060Z,56.86
2024-01-05T19:30:57.408Z,57.03
2024-01-05T19:32:59.674Z,57.12
2024-01-05T19:35:01.572Z,56.95
2024-01-05T19:37:03.396Z,57.09
2024-01-05T19:39:05.416Z,56.86
2024-01-05T19:41:10.379Z,56.94
2024-01-05T19:43:12.626Z,57.10
2024-01-05T19:45:14.890Z,56.98
2024-01-05T19:47:19.322Z,56.95
2024-01-05T19:49:21.101Z,56.94
2024-01-05T19:51:23.447Z,56.88
2024-01-05T19:53:25.020Z,57.15
2024-01-05T19:55:26.742Z,57.02
2024-01-05T19:57:28.390Z,56.97
2024-01-05T19:59:30.143Z,56.93
2024-01-05T20:01:32.845Z,57.31
2024-01-05T20:03:35.550Z,57.37
2024-01-05T20:05:40.206Z,57.08
2024-01-05T20:07:41.855Z,57.25
2024-01-05T20:09:43.668Z,57.10
2024-01-05T20:11:46.520Z,57.35
2024-01-05T20:13:48.671Z,57.32
2024-01-05T20:15:50.655Z,57.14
2024-01-05T20:17:52.376Z,57.04
2024-01-05T20:19:54.206Z,57.39
2024-01-05T20:21:56.103Z,57.25
2024-01-05T20:23:58.003Z,57.28
2024-01-05T20:26:01.516Z,57.50
2024-01-05T20:28:03.308Z,57.22
2024-01-05T20:30:09.546Z,57.32
2024-01-05T20:32:11.360Z,57.65
2024-01-05T20:34:13.239Z,57.58
2024-01-05T20:36:17.131Z,57.38
2024-01-05T20:38:18.786Z,57.04
2024-01-05T20:40:20.398Z,57.45
2024-01-05T20:42:22.056Z,57.22
2024-01-05T20:44:25.162Z,57.34
2024-01-05T20:46:26.753Z,57.57
2024-01-05T20:48:28.451Z,57.70
2024-01-05T20:50:30.123Z,57.41
2024-01-05T20:52:35.812Z,57.70
2024-01-05T20:54:37.606Z,57.41
2024-01-05T20:56:39.172Z,57.61
2024-01-05T20:58:43.764Z,57.63
2024-01-05T21:00:49.101Z,57.57
2024-01-05T21:02:50.744Z,57.44
2024-01-05T21:04:52.608Z,57.48
2024-01-05T21:06:55.041Z,57.58
2024-01-05T21:08:58.388Z,57.32
2024-01-05T21:11:00.059Z,57.35
2024-01-05T21:13:01.645Z,57.64
2024-01-05T21:17:10.314Z,57.30
2024-01-05T21:19:12.286Z,57.45
2024-01-05T21:21:13.906Z,57.61
2024-01-05T21:23:15.514Z,57.75
2024-01-05T21:27:24.672Z,57.81
2024-01-05T21:29:26.238Z,57.47
2024-01-05T21:31:27.975Z,57.84
2024-01-05T21:33:29.694Z,57.78
2024-01-05T21:35:31.411Z,57.65
2024-01-05T21:39:40.420Z,57.71
2024-01-05T21:41:42.008Z,57.55
2024-01-05T21:43:46.222Z,57.40
2024-01-05T21:45:49.580Z,57.80
2024-01-05T21:47:51.421Z,57.65
2024-01-05T21:54:06.540Z,57.85
2024-01-05T21:56:08.174Z,57.68
2024-01-05T21:58:12.898Z,57.68
2024-01-05T22:00:17.115Z,57.43
2024-01-05T22:02:18.735Z,57.72
2024-01-05T22:06:26.932Z,57.74
2024-01-05T22:08:28.619Z,57.88
2024-01-05T22:10:30.204Z,57.51
2024-01-05T22:12:31.828Z,57.86
2024-01-05T22:14:33.622Z,57.49
2024-01-05T22:16:35.420Z,57.55
2024-01-05T22:18:38.668Z,57.67
2024-01-05T22:20:43.080Z,57.82
2024-01-05T22:22:44.787Z,57.75
2024-01-05T22:24:46.456Z,57.77
2024-01-05T22:26:48.596Z,57.62
2024-01-05T22:28:50.265Z,57.55
2024-01-05T22:30:51.892Z,57.61
2024-01-05T22:32:53.793Z,57.69
2024-01-05T22:34:55.436Z,57.91
2024-01-05T22:37:01.305Z,57.93
2024-01-05T22:39:04.617Z,57.53
2024-01-05T22:41:07.282Z,57.93
2024-01-05T22:43:09.762Z,57.90
2024-01-05T22:45:11.559Z,57.61
2024-01-05T22:47:13.297Z,57.61
2024-01-05T22:49:14.993Z,58.05
2024-01-05T22:51:29.298Z,57.88
2024-01-05T22:53:31.113Z,57.94
2024-01-05T22:55:32.629Z,57.91
2024-01-05T22:57:34.383Z,57.93
2024-01-05T22:59:36.244Z,57.83
2024-01-05T23:01:37.933Z,57.73
2024-01-05T23:03:40.003Z,57.92
2024-01-05T23:05:43.605Z,57.88
2024-01-05T23:07:45.461Z,57.99
2024-01-05T23:09:47.260Z,58.13
2024-01-05T23:11:49.629Z,58.19
2024-01-05T23:13:51.220Z,58.05
2024-01-05T23:15:56.160Z,57.90
2024-01-05T23:17:59.634Z,58.03
2024-01-05T23:20:01.620Z,58.15
2024-01-05T23:22:03.439Z,57.72
2024-01-05T23:24:05.593Z,58.04
2024-01-05T23:26:17.089Z,58.08
2024-01-05T23:28:19.110Z,57.72
2024-01-05T23:30:20.800Z,57.76
2024-01-05T23:32:22.925Z,58.00
2024-01-05T23:34:25.058Z,57.86
2024-01-05T23:36:26.683Z,57.96
2024-01-05T23:38:28.279Z,57.83
2024-01-05T23:40:29.872Z,58.04
2024-01-05T23:42:32.380Z,57.76
2024-01-05T23:44:34.031Z,58.27
2024-01-05T23:46:35.616Z,57.81
2024-01-05T23:48:37.472Z,57.75
2024-01-05T23:50:39.129Z,57.87
2024-01-05T23:52:43.672Z,57.88
2024-01-05T23:54:45.380Z,57.77
2024-01-05T23:56:47.038Z,57.99
2024-01-05T23:58:48.667Z,57.82
